createdAt,value
2022-08-26T00:01:44.906Z,7.28
2022-08-26T00:04:13.081Z,7.70
2022-08-26T00:06:42.620Z,7.57
2022-08-26T00:09:16.143Z,8.27
2022-08-26T00:11:45.330Z,7.10
2022-08-26T00:14:13.982Z,7.38
2022-08-26T00:16:47.838Z,7.25
2022-08-26T00:19:17.770Z,7.25
2022-08-26T00:21:46.366Z,8.68
2022-08-26T00:24:15.970Z,8.38
2022-08-26T00:26:43.799Z,7.30
2022-08-26T00:29:12.229Z,6.97
2022-08-26T00:31:39.909Z,7.40
2022-08-26T00:34:07.134Z,7.55
2022-08-26T00:36:36.800Z,7.70
2022-08-26T00:39:04.548Z,7.50
2022-08-26T00:41:31.386Z,7.82
2022-08-26T00:43:58.321Z,7.93
2022-08-26T00:46:31.653Z,7.35
2022-08-26T00:49:13.464Z,7.45
2022-08-26T00:51:48.828Z,7.25
2022-08-26T00:54:17.423Z,7.53
2022-08-26T00:57:00.871Z,7.82
2022-08-26T00:59:32.792Z,7.53
2022-08-26T01:02:02.856Z,7.05
2022-08-26T01:04:31.872Z,7.55
2022-08-26T01:06:59.729Z,7.10
2022-08-26T01:09:26.998Z,8.70
2022-08-26T01:11:57.516Z,7.60
2022-08-26T01:14:26.760Z,7.60
2022-08-26T01:16:53.540Z,7.65
2022-08-26T01:19:37.507Z,8.43
2022-08-26T01:22:17.255Z,7.60
2022-08-26T01:24:44.125Z,7.65
2022-08-26T01:27:15.555Z,7.47
2022-08-26T01:29:45.288Z,8.05
2022-08-26T01:32:16.110Z,8.13
2022-08-26T01:34:43.069Z,7.95
2022-08-26T01:37:15.829Z,7.75
2022-08-26T01:39:44.878Z,7.18
2022-08-26T01:42:14.639Z,7.40
2022-08-26T01:44:58.652Z,7.20
2022-08-26T01:47:29.929Z,7.00
2022-08-26T01:49:59.774Z,7.93
2022-08-26T01:52:29.315Z,7.32
2022-08-26T01:54:57.552Z,6.97
2022-08-26T01:57:25.914Z,7.03
2022-08-26T01:59:56.276Z,7.80
2022-08-26T02:02:24.445Z,7.43
2022-08-26T02:04:58.834Z,7.53
2022-08-26T02:07:27.804Z,7.68
2022-08-26T02:09:55.211Z,7.20
2022-08-26T02:12:22.323Z,7.85
2022-08-26T02:14:53.794Z,7.32
2022-08-26T02:17:49.120Z,7.33
2022-08-26T02:20:21.288Z,7.55
2022-08-26T02:22:48.166Z,7.35
2022-08-26T02:26:11.386Z,7.22
2022-08-26T02:28:49.422Z,7.22
2022-08-26T02:31:16.431Z,7.57
2022-08-26T02:33:43.486Z,8.20
2022-08-26T02:36:10.593Z,7.32
2022-08-26T02:38:39.000Z,7.82
2022-08-26T02:41:06.621Z,8.10
2022-08-26T02:43:34.867Z,7.57
2022-08-26T02:46:02.400Z,7.38
2022-08-26T02:48:30.163Z,7.88
2022-08-26T02:51:00.596Z,7.75
2022-08-26T02:53:31.690Z,8.45
2022-08-26T02:55:59.051Z,7.90
2022-08-26T02:58:26.885Z,8.27
2022-08-26T03:00:53.930Z,8.18
2022-08-26T03:03:22.488Z,8.40
2022-08-26T03:05:50.613Z,8.55
2022-08-26T03:08:17.897Z,7.97
2022-08-26T03:10:44.711Z,8.38
2022-08-26T03:13:11.578Z,8.25
2022-08-26T03:15:39.382Z,9.35
2022-08-26T03:18:06.947Z,9.13
2022-08-26T03:20:34.464Z,8.75
2022-08-26T03:23:01.538Z,9.30
2022-08-26T03:25:28.707Z,9.70
2022-08-26T03:27:55.466Z,9.15
2022-08-26T03:30:44.890Z,9.23
2022-08-26T03:33:13.861Z,8.80
2022-08-26T03:35:43.473Z,9.55
2022-08-26T03:38:11.340Z,9.30
2022-08-26T03:43:20.181Z,9.05
2022-08-26T03:45:46.991Z,9.27
2022-08-26T03:48:14.349Z,9.30
2022-08-26T03:50:42.684Z,9.85
2022-08-26T03:53:13.227Z,9.57
2022-08-26T03:55:40.783Z,9.48
2022-08-26T03:58:07.613Z,9.15
2022-08-26T04:00:34.754Z,8.98
2022-08-26T04:03:03.212Z,8.98
2022-08-26T04:05:30.139Z,9.45
2022-08-26T04:07:57.032Z,9.07
2022-08-26T04:10:29.121Z,8.73
2022-08-26T04:12:58.876Z,10.57
2022-08-26T04:15:26.974Z,10.07
2022-08-26T04:17:54.003Z,8.68
2022-08-26T04:20:22.702Z,9.25
2022-08-26T04:22:49.547Z,9.45
2022-08-26T04:25:16.906Z,9.65
2022-08-26T04:27:43.652Z,9.77
2022-08-26T04:30:11.346Z,9.75
2022-08-26T04:32:38.661Z,9.90
2022-08-26T04:35:06.453Z,10.20
2022-08-26T04:37:33.566Z,9.65
2022-08-26T04:40:00.510Z,9.27
2022-08-26T04:42:29.324Z,9.68
2022-08-26T04:44:56.136Z,9.43
2022-08-26T04:47:22.907Z,10.10
2022-08-26T04:49:49.855Z,9.65
2022-08-26T04:52:17.208Z,9.85
2022-08-26T04:54:44.042Z,9.23
2022-08-26T04:57:10.860Z,8.85
2022-08-26T04:59:39.496Z,9.10
2022-08-26T05:02:07.209Z,8.90
2022-08-26T05:04:34.852Z,8.82
2022-08-26T05:07:03.049Z,9.85
2022-08-26T05:09:30.513Z,9.93
2022-08-26T05:11:57.528Z,8.82
2022-08-26T05:14:24.443Z,9.50
2022-08-26T05:16:51.864Z,9.10
2022-08-26T05:19:19.523Z,9.68
2022-08-26T05:21:48.419Z,8.60
2022-08-26T05:24:16.153Z,10.02
2022-08-26T05:26:44.563Z,8.63
2022-08-26T05:29:11.786Z,9.25
2022-08-26T05:31:38.827Z,9.15
2022-08-26T05:34:05.961Z,8.82
2022-08-26T05:36:35.510Z,9.00
2022-08-26T05:39:03.987Z,8.70
2022-08-26T05:41:36.455Z,9.05
2022-08-26T05:44:06.393Z,8.05
2022-08-26T05:46:35.403Z,8.70
2022-08-26T05:49:03.816Z,8.07
2022-08-26T05:51:31.164Z,7.93
2022-08-26T05:53:58.587Z,7.93
2022-08-26T05:56:27.676Z,8.90
2022-08-26T05:58:56.234Z,8.68
2022-08-26T06:01:28.039Z,8.38
2022-08-26T06:04:02.022Z,8.02
2022-08-26T06:06:32.172Z,8.18
2022-08-26T06:09:00.856Z,8.15
2022-08-26T06:11:30.604Z,7.65
2022-08-26T06:14:03.527Z,7.53
2022-08-26T06:16:33.498Z,7.72
2022-08-26T06:19:03.026Z,7.47
2022-08-26T06:21:33.511Z,7.50
2022-08-26T06:24:27.166Z,7.50
2022-08-26T06:27:01.275Z,8.18
2022-08-26T06:29:30.921Z,7.80
2022-08-26T06:31:58.505Z,7.95
2022-08-26T06:34:30.469Z,7.65
2022-08-26T06:36:59.855Z,11.73
2022-08-26T06:39:30.796Z,9.27
2022-08-26T06:41:59.054Z,7.57
2022-08-26T06:44:27.191Z,7.78
2022-08-26T06:46:54.279Z,7.78
2022-08-26T06:49:26.653Z,7.22
2022-08-26T06:51:56.475Z,7.13
2022-08-26T06:54:23.504Z,7.70
2022-08-26T06:56:50.390Z,7.05
2022-08-26T06:59:18.017Z,6.93
2022-08-26T07:01:45.135Z,7.35
2022-08-26T07:04:15.722Z,7.72
2022-08-26T07:06:48.771Z,6.80
2022-08-26T07:09:16.906Z,7.72
2022-08-26T07:11:44.693Z,7.15
2022-08-26T07:14:12.888Z,7.50
2022-08-26T07:16:41.204Z,7.22
2022-08-26T07:19:11.161Z,8.00
2022-08-26T07:21:41.612Z,7.65
2022-08-26T07:24:11.171Z,7.68
2022-08-26T07:26:42.919Z,7.50
2022-08-26T07:29:12.460Z,7.80
2022-08-26T07:31:42.482Z,7.60
2022-08-26T07:34:10.947Z,7.25
2022-08-26T07:36:37.998Z,7.10
2022-08-26T07:39:05.826Z,6.72
2022-08-26T07:41:33.467Z,7.30
2022-08-26T07:44:01.060Z,6.90
2022-08-26T07:46:30.350Z,6.00
2022-08-26T07:48:58.526Z,6.93
2022-08-26T07:51:26.054Z,6.55
2022-08-26T07:53:54.332Z,5.68
2022-08-26T07:56:23.369Z,7.10
2022-08-26T07:58:54.272Z,6.95
2022-08-26T08:01:25.309Z,6.82
2022-08-26T08:03:54.454Z,6.40
2022-08-26T08:06:27.393Z,6.55
2022-08-26T08:08:56.126Z,6.68
2022-08-26T08:11:25.076Z,6.13
2022-08-26T08:13:56.049Z,6.10
2022-08-26T08:16:25.191Z,5.47
2022-08-26T08:18:53.537Z,6.47
2022-08-26T08:21:23.956Z,6.18
2022-08-26T08:23:52.925Z,6.00
2022-08-26T08:26:20.230Z,6.57
2022-08-26T08:28:47.906Z,6.90
2022-08-26T08:31:38.995Z,6.70
2022-08-26T08:34:10.063Z,6.28
2022-08-26T08:36:36.947Z,6.65
2022-08-26T08:39:03.990Z,6.55
2022-08-26T08:42:05.951Z,6.32
2022-08-26T08:44:33.849Z,6.32
2022-08-26T08:47:11.005Z,5.68
2022-08-26T08:49:37.913Z,6.55
2022-08-26T08:52:29.395Z,6.40
2022-08-26T08:54:57.210Z,6.05
2022-08-26T08:57:53.784Z,5.70
2022-08-26T09:00:30.456Z,5.95
2022-08-26T09:03:03.815Z,6.43
2022-08-26T09:05:40.093Z,5.70
2022-08-26T09:08:21.633Z,6.03
2022-08-26T09:10:53.152Z,5.78
2022-08-26T09:13:26.274Z,6.03
2022-08-26T09:16:03.192Z,6.05
2022-08-26T09:18:36.880Z,6.00
2022-08-26T09:21:07.675Z,6.00
2022-08-26T09:23:38.030Z,5.85
2022-08-26T09:26:14.747Z,5.55
2022-08-26T09:28:45.507Z,6.00
2022-08-26T09:31:23.668Z,6.13
2022-08-26T09:34:06.152Z,5.90
2022-08-26T09:36:39.488Z,6.13
2022-08-26T09:39:33.447Z,6.38
2022-08-26T09:42:06.469Z,5.93
2022-08-26T09:44:53.010Z,6.45
2022-08-26T09:47:40.496Z,6.00
2022-08-26T09:50:29.180Z,5.60
2022-08-26T09:53:16.860Z,6.13
2022-08-26T09:55:47.614Z,5.40
2022-08-26T09:58:35.204Z,5.97
2022-08-26T10:01:09.146Z,5.07
2022-08-26T10:06:23.731Z,5.75
2022-08-26T10:08:54.767Z,5.72
2022-08-26T10:11:39.808Z,5.60
2022-08-26T10:14:25.198Z,5.95
2022-08-26T10:17:01.342Z,5.72
2022-08-26T10:20:22.743Z,5.88
2022-08-26T10:23:01.469Z,5.13
2022-08-26T10:25:38.040Z,5.88
2022-08-26T10:28:48.194Z,6.28
2022-08-26T10:31:40.167Z,5.82
2022-08-26T10:34:09.530Z,5.50
2022-08-26T10:37:13.461Z,5.13
2022-08-26T10:40:03.873Z,6.10
2022-08-26T10:42:38.941Z,6.93
2022-08-26T10:45:15.536Z,5.78
2022-08-26T10:47:57.879Z,5.65
2022-08-26T10:50:38.362Z,5.78
2022-08-26T10:53:13.339Z,6.15
2022-08-26T10:55:45.464Z,5.45
2022-08-26T10:58:26.150Z,5.55
2022-08-26T11:01:36.345Z,5.93
2022-08-26T11:04:16.914Z,5.55
2022-08-26T11:06:46.086Z,6.20
2022-08-26T11:09:44.841Z,6.18
2022-08-26T11:12:34.422Z,5.28
2022-08-26T11:15:05.369Z,5.57
2022-08-26T11:17:44.615Z,6.50
2022-08-26T11:20:23.941Z,5.75
2022-08-26T11:22:53.278Z,5.72
2022-08-26T11:25:29.666Z,6.88
2022-08-26T11:28:01.122Z,6.32
2022-08-26T11:30:41.619Z,6.47
2022-08-26T11:33:09.195Z,6.68
2022-08-26T11:35:45.836Z,5.82
2022-08-26T11:38:18.476Z,6.30
2022-08-26T11:40:54.530Z,6.05
2022-08-26T11:43:26.117Z,5.05
2022-08-26T11:46:05.652Z,5.97
2022-08-26T11:48:37.723Z,6.25
2022-08-26T11:51:06.827Z,6.38
2022-08-26T11:53:47.175Z,5.63
2022-08-26T11:56:19.975Z,5.38
2022-08-26T11:58:48.886Z,5.97
2022-08-26T12:01:29.518Z,5.63
2022-08-26T12:04:00.108Z,5.50
2022-08-26T12:06:45.861Z,4.78
2022-08-26T12:09:22.049Z,4.88
2022-08-26T12:11:48.975Z,5.18
2022-08-26T12:14:27.702Z,5.65
2022-08-26T12:16:55.118Z,5.35
2022-08-26T12:19:33.303Z,5.68
2022-08-26T12:22:23.816Z,5.57
2022-08-26T12:25:00.916Z,3.20
2022-08-26T12:27:31.285Z,2.85
2022-08-26T12:30:08.478Z,2.92
2022-08-26T12:32:37.316Z,2.80
2022-08-26T12:35:22.290Z,2.65
2022-08-26T12:37:52.967Z,2.40
2022-08-26T12:40:40.443Z,1.90
2022-08-26T12:43:08.701Z,2.50
2022-08-26T12:45:43.083Z,1.98
2022-08-26T12:48:34.996Z,2.30
2022-08-26T12:51:02.912Z,1.90
2022-08-26T12:53:32.497Z,2.08
2022-08-26T12:56:01.542Z,1.90
2022-08-26T12:58:32.481Z,2.28
2022-08-26T13:01:05.259Z,2.20
2022-08-26T13:03:37.697Z,2.35
2022-08-26T13:06:15.959Z,1.95
2022-08-26T13:09:06.542Z,1.95
2022-08-26T13:11:34.814Z,2.88
2022-08-26T13:14:06.906Z,2.60
2022-08-26T13:16:35.722Z,2.83
2022-08-26T13:19:05.686Z,2.63
2022-08-26T13:21:49.018Z,2.72
2022-08-26T13:24:23.157Z,3.30
2022-08-26T13:26:50.275Z,2.75
2022-08-26T13:29:17.987Z,2.95
2022-08-26T13:31:46.155Z,3.80
2022-08-26T13:34:19.528Z,3.53
2022-08-26T13:36:47.484Z,4.13
2022-08-26T13:39:15.012Z,3.83
2022-08-26T13:41:43.331Z,3.10
2022-08-26T13:44:11.117Z,3.55
2022-08-26T13:46:38.528Z,3.85
2022-08-26T13:49:05.807Z,2.95
2022-08-26T13:51:33.672Z,3.92
2022-08-26T13:54:01.038Z,3.40
2022-08-26T13:56:29.841Z,3.70
2022-08-26T13:58:57.690Z,4.55
2022-08-26T14:01:24.718Z,3.72
2022-08-26T14:03:51.836Z,3.88
2022-08-26T14:06:19.321Z,3.95
2022-08-26T14:08:46.212Z,4.03
2022-08-26T14:11:13.535Z,4.72
2022-08-26T14:13:40.473Z,3.67
2022-08-26T14:16:31.644Z,4.00
2022-08-26T14:19:01.300Z,4.53
2022-08-26T14:21:33.799Z,4.32
2022-08-26T14:24:01.195Z,3.22
2022-08-26T14:26:29.782Z,4.05
2022-08-26T14:29:00.870Z,3.40
2022-08-26T14:31:29.832Z,3.67
2022-08-26T14:34:03.501Z,3.22
2022-08-26T14:36:33.145Z,3.63
2022-08-26T14:39:03.887Z,3.40
2022-08-26T14:41:32.218Z,3.65
2022-08-26T14:44:06.494Z,3.50
2022-08-26T14:46:38.631Z,3.72
2022-08-26T14:49:09.920Z,3.33
2022-08-26T14:54:13.154Z,3.72
2022-08-26T14:56:42.815Z,3.60
2022-08-26T14:59:10.394Z,3.83
2022-08-26T15:01:37.428Z,4.55
2022-08-26T15:04:04.752Z,3.97
2022-08-26T15:06:31.973Z,3.90
2022-08-26T15:08:59.777Z,3.92
2022-08-26T15:11:27.134Z,4.78
2022-08-26T15:13:54.228Z,4.22
2022-08-26T15:16:22.723Z,4.38
2022-08-26T15:18:51.543Z,4.28
2022-08-26T15:21:19.628Z,4.70
2022-08-26T15:23:48.206Z,4.50
2022-08-26T15:26:16.039Z,4.40
2022-08-26T15:28:43.183Z,4.63
2022-08-26T15:31:10.541Z,4.10
2022-08-26T15:33:38.471Z,4.88
2022-08-26T15:36:07.100Z,4.30
2022-08-26T15:38:38.441Z,4.18
2022-08-26T15:41:08.594Z,3.97
2022-08-26T15:43:36.896Z,4.68
2022-08-26T15:46:04.132Z,4.50
2022-08-26T15:48:31.043Z,4.70
2022-08-26T15:51:00.535Z,4.10
2022-08-26T15:53:30.610Z,4.28
2022-08-26T15:55:59.023Z,4.60
2022-08-26T15:58:28.612Z,3.88
2022-08-26T16:00:56.320Z,5.88
2022-08-26T16:03:23.218Z,4.82
2022-08-26T16:05:50.236Z,5.45
2022-08-26T16:08:17.787Z,4.40
2022-08-26T16:10:50.654Z,3.35
2022-08-26T16:13:19.820Z,3.60
2022-08-26T16:15:47.878Z,2.55
2022-08-26T16:18:15.594Z,2.15
2022-08-26T16:21:10.303Z,2.95
2022-08-26T16:23:38.436Z,2.40
2022-08-26T16:26:10.636Z,2.60
2022-08-26T16:28:38.305Z,2.30
2022-08-26T16:31:06.508Z,2.88
2022-08-26T16:33:33.365Z,2.80
2022-08-26T16:36:00.255Z,2.05
2022-08-26T16:38:27.102Z,2.60
2022-08-26T16:40:53.987Z,2.47
2022-08-26T16:43:20.768Z,2.38
2022-08-26T16:45:47.629Z,2.83
2022-08-26T16:48:14.480Z,2.50
2022-08-26T16:50:41.997Z,2.65
2022-08-26T16:55:45.384Z,2.92
2022-08-26T16:58:12.407Z,3.08
2022-08-26T17:00:39.383Z,3.75
2022-08-26T17:03:06.236Z,2.80
2022-08-26T17:05:33.125Z,2.78
2022-08-26T17:08:00.435Z,2.97
2022-08-26T17:10:28.765Z,2.95
2022-08-26T17:12:56.204Z,3.20
2022-08-26T17:15:26.235Z,3.00
2022-08-26T17:17:53.920Z,2.65
2022-08-26T17:20:22.913Z,3.22
2022-08-26T17:22:51.365Z,3.05
2022-08-26T17:25:23.336Z,2.90
2022-08-26T17:27:50.937Z,3.05
2022-08-26T17:30:19.123Z,3.95
2022-08-26T17:32:46.884Z,3.17
2022-08-26T17:35:15.268Z,4.00
2022-08-26T17:37:42.302Z,3.42
2022-08-26T17:40:13.138Z,3.20
2022-08-26T17:42:40.414Z,3.85
2022-08-26T17:45:08.395Z,3.60
2022-08-26T17:47:35.741Z,3.20
2022-08-26T17:50:04.861Z,3.78
2022-08-26T17:52:31.688Z,3.25
2022-08-26T17:54:59.036Z,5.72
2022-08-26T17:57:27.150Z,5.55
2022-08-26T17:59:54.511Z,5.82
2022-08-26T18:02:22.310Z,5.68
2022-08-26T18:04:49.451Z,6.47
2022-08-26T18:07:16.872Z,5.90
2022-08-26T18:09:43.884Z,6.32
2022-08-26T18:12:11.986Z,7.05
2022-08-26T18:14:38.886Z,7.10
2022-08-26T18:17:06.064Z,7.82
2022-08-26T18:19:33.059Z,9.10
2022-08-26T18:21:59.965Z,9.40
2022-08-26T18:24:30.479Z,6.18
2022-08-26T18:26:57.829Z,4.10
2022-08-26T18:29:25.552Z,3.47
2022-08-26T18:31:52.578Z,4.03
2022-08-26T18:34:19.859Z,3.33
2022-08-26T18:36:47.268Z,2.75
2022-08-26T18:39:15.629Z,3.00
2022-08-26T18:41:46.996Z,2.95
2022-08-26T18:44:17.120Z,3.00
2022-08-26T18:46:45.703Z,3.03
2022-08-26T18:49:16.954Z,3.08
2022-08-26T18:51:44.457Z,3.53
2022-08-26T18:54:11.695Z,3.33
2022-08-26T18:56:40.052Z,3.28
2022-08-26T18:59:08.194Z,3.17
2022-08-26T19:01:37.072Z,2.72
2022-08-26T19:04:06.375Z,3.80
2022-08-26T19:06:35.644Z,3.78
2022-08-26T19:09:04.301Z,4.10
2022-08-26T19:11:38.309Z,3.78
2022-08-26T19:14:16.982Z,3.85
2022-08-26T19:16:48.503Z,4.13
2022-08-26T19:19:16.012Z,3.77
2022-08-26T19:21:43.172Z,4.25
2022-08-26T19:24:15.458Z,3.95
2022-08-26T19:26:47.389Z,4.30
2022-08-26T19:29:15.368Z,4.15
2022-08-26T19:31:43.154Z,3.55
2022-08-26T19:34:11.237Z,3.72
2022-08-26T19:36:38.614Z,3.67
2022-08-26T19:39:09.967Z,4.28
2022-08-26T19:41:38.240Z,4.45
2022-08-26T19:44:11.607Z,3.53
2022-08-26T19:49:11.011Z,3.78
2022-08-26T19:51:37.806Z,3.85
2022-08-26T19:54:05.063Z,3.78
2022-08-26T19:56:32.107Z,3.85
2022-08-26T19:58:58.935Z,3.80
2022-08-26T20:01:26.286Z,4.45
2022-08-26T20:03:53.508Z,3.78
2022-08-26T20:06:20.844Z,3.90
2022-08-26T20:08:50.642Z,3.95
2022-08-26T20:11:18.676Z,4.70
2022-08-26T20:13:47.421Z,4.13
2022-08-26T20:16:15.175Z,4.53
2022-08-26T20:19:02.095Z,4.45
2022-08-26T20:21:35.510Z,4.70
2022-08-26T20:24:11.092Z,5.03
2022-08-26T20:26:39.923Z,4.47
2022-08-26T20:29:08.414Z,5.05
2022-08-26T20:31:35.458Z,4.68
2022-08-26T20:34:02.601Z,5.32
2022-08-26T20:36:30.008Z,4.97
2022-08-26T20:38:57.788Z,5.10
2022-08-26T20:41:25.759Z,5.80
2022-08-26T20:43:56.435Z,5.43
2022-08-26T20:46:25.208Z,5.40
2022-08-26T20:48:53.395Z,5.75
2022-08-26T20:51:22.943Z,5.32
2022-08-26T20:53:50.556Z,6.03
2022-08-26T20:56:21.798Z,6.10
2022-08-26T20:58:48.590Z,6.55
2022-08-26T21:01:21.925Z,6.10
2022-08-26T21:03:52.376Z,6.63
2022-08-26T21:06:19.323Z,5.93
2022-08-26T21:08:48.339Z,6.45
2022-08-26T21:11:16.021Z,6.40
2022-08-26T21:14:03.820Z,5.88
2022-08-26T21:16:30.160Z,6.03
2022-08-26T21:18:57.503Z,5.93
2022-08-26T21:21:27.580Z,6.45
2022-08-26T21:23:55.197Z,6.47
2022-08-26T21:26:22.693Z,6.55
2022-08-26T21:28:50.571Z,7.35
2022-08-26T21:31:20.440Z,6.85
2022-08-26T21:33:47.408Z,6.70
2022-08-26T21:36:15.479Z,6.95
2022-08-26T21:38:42.600Z,6.88
2022-08-26T21:41:22.019Z,7.50
2022-08-26T21:43:50.564Z,7.25
2022-08-26T21:46:21.901Z,7.18
2022-08-26T21:48:56.052Z,7.97
2022-08-26T21:51:25.004Z,7.38
2022-08-26T21:53:52.953Z,8.40
2022-08-26T21:56:21.211Z,8.35
2022-08-26T21:58:48.212Z,8.75
2022-08-26T22:01:19.126Z,11.13
2022-08-26T22:03:47.282Z,11.10
2022-08-26T22:06:19.383Z,12.27
2022-08-26T22:08:46.649Z,12.27
2022-08-26T22:11:14.239Z,11.80
2022-08-26T22:13:42.967Z,11.80
2022-08-26T22:16:10.537Z,11.70
2022-08-26T22:18:38.516Z,10.90
2022-08-26T22:21:08.420Z,11.88
2022-08-26T22:23:36.313Z,10.95
2022-08-26T22:26:04.423Z,11.52
2022-08-26T22:28:31.791Z,10.93
2022-08-26T22:30:58.750Z,10.43
2022-08-26T22:33:25.722Z,10.32
2022-08-26T22:35:53.536Z,9.02
2022-08-26T22:38:23.745Z,9.52
2022-08-26T22:40:56.024Z,9.05
2022-08-26T22:43:27.729Z,8.63
2022-08-26T22:45:55.950Z,7.55
2022-08-26T22:48:24.742Z,7.93
2022-08-26T22:50:58.255Z,8.65
2022-08-26T22:53:27.171Z,7.53
2022-08-26T22:55:54.369Z,7.80
2022-08-26T22:58:25.396Z,7.50
2022-08-26T23:00:57.847Z,8.25
2022-08-26T23:03:27.038Z,7.45
2022-08-26T23:05:55.358Z,7.25
2022-08-26T23:08:23.179Z,7.00
2022-08-26T23:10:50.034Z,7.35
2022-08-26T23:13:17.316Z,7.18
2022-08-26T23:15:45.142Z,7.13
2022-08-26T23:18:14.386Z,6.78
2022-08-26T23:20:41.931Z,7.38
2022-08-26T23:23:09.467Z,7.57
2022-08-26T23:25:37.258Z,8.27
2022-08-26T23:28:04.523Z,7.68
2022-08-26T23:30:34.413Z,7.75
2022-08-26T23:33:01.463Z,8.02
2022-08-26T23:35:28.649Z,7.57
2022-08-26T23:37:56.047Z,8.10
2022-08-26T23:40:29.022Z,8.00
2022-08-26T23:42:58.103Z,8.45
2022-08-26T23:45:26.501Z,7.85
2022-08-26T23:47:54.030Z,8.95
2022-08-26T23:50:23.711Z,7.78
2022-08-26T23:53:09.007Z,7.97
2022-08-26T23:55:37.353Z,8.73
2022-08-26T23:58:05.418Z,8.32
